Cedarville, OH

12:31 PM EST on March 03, 2015 (GMT -0500)
Wright-Patterson Air Force Base | Change Station
CLOSE
Current Station
Airport
Location: Wright-Patt AFB,
Elevation: 823 ft
Nearby Weather Stations
Active Advisory: Freezing Rain Advisory

Elev 823 ft 39.83 °N, 84.05 °W | Updated 13 minutes ago

Overcast
Overcast
32 °F
Feels Like 22 °F
N
13
Wind Variable Wind from SSE

Today
High -- | Low -- °F
--% Chance of Precip.
Yesterday
High -- | Low -- °F
Precip. -- in
7:05 AM 6:29 PM
Waxing Gibbous, 96% visible
Pressure 29.86 in
Visibility 4.0 miles
Clouds Mostly Cloudy 700 ft
Overcast 1000 ft
Windchill 22 °F
Dew Point 32 °F
Humidity 100%
Rainfall 0.01 in
Snow Depth Not available.
UV 2 out of 12
Pollen 1.30 out of 12
Air Quality Not available.
Flu Activity Not available.
SPECI KFFO 031718Z 16011KT 4SM RA BR BKN007 OVC010 00/00 A2986 RMK AO2A

More Conditions Fewer Conditions

Pressure 29.86 in
Visibility 4.0 miles
Clouds Mostly Cloudy 700 ft
Overcast 1000 ft
Windchill 22 °F
Dew Point 32 °F
Humidity 100%
Rainfall 0.01 in
Snow Depth Not available.
UV 2 out of 12
Pollen 1.30 out of 12
Air Quality Not available.
Flu Activity Not available.
SPECI KFFO 031718Z 16011KT 4SM RA BR BKN007 OVC010 00/00 A2986 RMK AO2A

More Conditions Fewer Conditions

10-Day Weather Forecast

Almanac

Astronomy

Mar. 03, 2015 Rise Set
Actual Time
Civil Twilight
Nautical Twilight
Astronomical Twilight
Moon
Length of Visible Light
Length of Day
Tomorrow will be .
, % of the Moon is Illuminated

Today's Extremes

State Highs State Lows

Community

WunderPhotos

Upload Photos

1,802,180 photos uploaded!

WunderBlogs® & News

Nearby

Air Quality

  Air Quality AQ Index Pollutant
Not available.

Snow Depth

Station Depth Elevation

Earthquake Activity

City Distance Mag. Time & Date
Minimum magnitude displayed is 2.5.

Coastal Water Temperatures

Place Temperature

Nearby Weather Stations

Freezing Rain Advisory
Statement as of 12:03 PM EST on March 03, 2015

... Freezing Rain Advisory now in effect until 3 PM EST this
afternoon...

* hazard types... light ice accumulation.

* Accumulations... up to five hundredths of an inch of ice.

* Timing... areas of light freezing rain or drizzle will slowly
change to rain by mid afternoon.

* Impacts... light amounts of icing will cause some roads and
sidewalks to become slippery. Use caution when outdoors as
areas that look wet may be icy. If you must drive... be
cautious as you may encounter ice on roads.

Precautionary/preparedness actions...

A Freezing Rain Advisory means that periods of freezing rain or
freezing drizzle will cause travel difficulties. Be prepared for
slippery roads. Slow down and use caution while driving.